createdAt,value
2018-10-12T00:00:14.633Z,70.50
2018-10-12T00:02:43.646Z,70.60
2018-10-12T00:05:12.536Z,70.60
2018-10-12T00:07:41.630Z,70.90
2018-10-12T00:10:10.234Z,71.80
2018-10-12T00:12:38.569Z,72.00
2018-10-12T00:15:07.179Z,72.40
2018-10-12T00:17:35.750Z,71.70
2018-10-12T00:20:04.350Z,71.70
2018-10-12T00:22:32.638Z,71.50
2018-10-12T00:25:00.972Z,71.50
2018-10-12T00:27:29.252Z,71.40
2018-10-12T00:29:57.640Z,71.70
2018-10-12T00:32:25.924Z,71.80
2018-10-12T00:35:00.974Z,71.80
2018-10-12T00:37:29.316Z,71.70
2018-10-12T00:39:57.543Z,71.90
2018-10-12T00:42:25.819Z,71.90
2018-10-12T00:44:54.251Z,72.10
2018-10-12T00:47:22.535Z,72.20
2018-10-12T00:49:50.828Z,72.40
2018-10-12T00:52:19.130Z,72.30
2018-10-12T00:54:47.380Z,72.50
2018-10-12T00:57:15.676Z,73.40
2018-10-12T00:59:44.567Z,72.60
2018-10-12T01:02:12.991Z,72.80
2018-10-12T01:04:41.417Z,72.70
2018-10-12T01:07:09.744Z,72.90
2018-10-12T01:09:37.999Z,73.10
2018-10-12T01:12:27.151Z,73.20
2018-10-12T01:14:55.539Z,73.40
2018-10-12T01:17:23.965Z,73.30
2018-10-12T01:19:52.856Z,73.50
2018-10-12T01:22:21.199Z,73.70
2018-10-12T01:24:49.494Z,73.60
2018-10-12T01:27:17.847Z,73.70
2018-10-12T01:29:46.238Z,73.80
2018-10-12T01:32:19.727Z,74.00
2018-10-12T01:34:48.061Z,74.30
2018-10-12T01:37:16.381Z,74.40
2018-10-12T01:39:44.668Z,74.40
2018-10-12T01:42:13.130Z,74.60
2018-10-12T01:44:41.453Z,74.60
2018-10-12T01:47:09.748Z,74.80
2018-10-12T01:49:38.322Z,74.70
2018-10-12T01:52:06.946Z,74.90
2018-10-12T01:54:35.193Z,75.00
2018-10-12T01:57:03.543Z,75.40
2018-10-12T01:59:31.744Z,75.30
2018-10-12T02:02:00.015Z,75.40
2018-10-12T02:04:28.395Z,75.40
2018-10-12T02:06:56.612Z,75.60
2018-10-12T02:09:24.883Z,75.60
2018-10-12T02:11:53.101Z,75.90
2018-10-12T02:14:21.376Z,76.10
2018-10-12T02:16:49.659Z,76.20
2018-10-12T02:19:17.860Z,76.40
2018-10-12T02:21:46.813Z,76.60
2018-10-12T02:24:15.159Z,76.70
2018-10-12T02:26:43.685Z,76.90
2018-10-12T02:29:12.061Z,77.00
2018-10-12T02:31:40.399Z,77.00
2018-10-12T02:34:08.773Z,77.00
2018-10-12T02:36:37.204Z,77.30
2018-10-12T02:39:08.211Z,77.50
2018-10-12T02:41:36.855Z,77.50
2018-10-12T02:44:05.076Z,77.70
2018-10-12T02:46:33.382Z,78.00
2018-10-12T02:49:02.035Z,78.20
2018-10-12T02:51:30.521Z,78.40
2018-10-12T02:53:58.785Z,78.40
2018-10-12T02:56:27.054Z,78.40
2018-10-12T02:58:55.379Z,78.60
2018-10-12T03:01:23.731Z,78.70
2018-10-12T03:03:52.573Z,79.00
2018-10-12T03:06:20.865Z,79.30
2018-10-12T03:08:49.257Z,79.10
2018-10-12T03:11:17.591Z,79.40
2018-10-12T03:13:45.985Z,79.60
2018-10-12T03:16:14.763Z,79.80
2018-10-12T03:18:43.282Z,79.70
2018-10-12T03:21:11.659Z,79.90
2018-10-12T03:23:40.085Z,80.10
2018-10-12T03:26:08.420Z,80.30
2018-10-12T03:28:37.378Z,80.40
2018-10-12T03:31:06.164Z,80.50
2018-10-12T03:33:35.055Z,80.60
2018-10-12T03:36:03.415Z,81.00
2018-10-12T03:38:31.754Z,81.00
2018-10-12T03:41:00.008Z,81.20
2018-10-12T03:43:28.362Z,81.50
2018-10-12T03:45:56.706Z,81.50
2018-10-12T03:48:24.972Z,81.80
2018-10-12T03:50:53.291Z,81.90
2018-10-12T03:53:21.637Z,82.20
2018-10-12T03:55:49.971Z,82.30
2018-10-12T03:58:18.249Z,82.70
2018-10-12T04:00:46.545Z,82.80
2018-10-12T04:03:14.783Z,82.80
2018-10-12T04:05:43.105Z,82.80
2018-10-12T04:08:11.563Z,82.90
2018-10-12T04:10:39.915Z,83.30
2018-10-12T04:13:09.542Z,83.60
2018-10-12T04:15:37.840Z,83.50
2018-10-12T04:18:06.144Z,83.70
2018-10-12T04:20:35.136Z,84.20
2018-10-12T04:23:03.401Z,84.40
2018-10-12T04:25:38.255Z,84.80
2018-10-12T04:28:06.611Z,84.60
2018-10-12T04:30:35.062Z,85.80
2018-10-12T04:33:03.410Z,85.50
2018-10-12T04:35:31.788Z,85.10
2018-10-12T04:38:00.132Z,85.40
2018-10-12T04:41:09.424Z,85.40
2018-10-12T04:43:37.769Z,85.80
2018-10-12T04:46:08.148Z,85.80
2018-10-12T04:48:37.498Z,86.30
2018-10-12T04:51:08.554Z,86.40
2018-10-12T04:53:36.904Z,86.20
2018-10-12T04:56:10.024Z,86.40
2018-10-12T04:58:38.770Z,86.40
2018-10-12T05:01:07.227Z,86.70
2018-10-12T05:03:35.644Z,86.60
2018-10-12T05:06:04.275Z,86.70
2018-10-12T05:08:32.916Z,86.90
2018-10-12T05:11:01.392Z,87.20
2018-10-12T05:13:29.978Z,87.10
2018-10-12T05:15:58.319Z,87.40
2018-10-12T05:18:33.285Z,87.40
2018-10-12T05:21:02.639Z,87.70
2018-10-12T05:23:30.937Z,87.70
2018-10-12T05:25:59.888Z,88.00
2018-10-12T05:28:29.367Z,88.20
2018-10-12T05:31:00.111Z,88.30
2018-10-12T05:33:28.474Z,88.30
2018-10-12T05:35:56.900Z,88.60
2018-10-12T05:38:26.356Z,88.70
2018-10-12T05:40:55.093Z,89.00
2018-10-12T05:43:23.737Z,89.30
2018-10-12T05:45:52.229Z,89.30
2018-10-12T05:48:31.773Z,89.40
2018-10-12T05:51:01.851Z,89.80
2018-10-12T05:53:31.240Z,90.10
2018-10-12T05:55:59.654Z,90.00
2018-10-12T05:58:28.186Z,90.00
2018-10-12T06:00:56.619Z,90.00
2018-10-12T06:03:25.149Z,90.10
2018-10-12T06:05:53.611Z,90.20
2018-10-12T06:08:21.969Z,90.40
2018-10-12T06:10:50.514Z,90.50
2018-10-12T06:13:19.193Z,90.80
2018-10-12T06:15:47.755Z,90.40
2018-10-12T06:18:16.137Z,90.50
2018-10-12T06:20:44.476Z,90.60
2018-10-12T06:23:12.847Z,90.50
2018-10-12T06:25:41.885Z,90.60
2018-10-12T06:28:10.501Z,90.80
2018-10-12T06:30:38.879Z,90.50
2018-10-12T06:33:07.320Z,90.40
2018-10-12T06:35:35.911Z,90.10
2018-10-12T06:38:04.373Z,90.20
2018-10-12T06:40:33.205Z,90.10
2018-10-12T06:43:01.725Z,90.10
2018-10-12T06:45:30.320Z,90.10
2018-10-12T06:47:59.515Z,90.00
2018-10-12T06:50:28.061Z,90.30
2018-10-12T06:52:56.397Z,91.40
2018-10-12T06:55:24.935Z,91.10
2018-10-12T06:57:53.583Z,91.20
2018-10-12T07:00:21.869Z,91.00
2018-10-12T07:02:50.299Z,91.00
2018-10-12T07:05:18.551Z,90.90
2018-10-12T07:07:48.741Z,90.70
2018-10-12T07:10:17.153Z,90.50
2018-10-12T07:12:45.515Z,90.30
2018-10-12T07:15:15.610Z,90.20
2018-10-12T07:17:43.982Z,90.20
2018-10-12T07:20:12.423Z,90.00
2018-10-12T07:22:40.823Z,90.10
2018-10-12T07:25:09.389Z,90.00
2018-10-12T07:27:37.775Z,89.80
2018-10-12T07:30:08.506Z,90.20
2018-10-12T07:32:37.273Z,90.00
2018-10-12T07:35:05.880Z,90.10
2018-10-12T07:37:34.471Z,90.00
2018-10-12T07:40:02.880Z,89.80
2018-10-12T07:42:31.855Z,89.60
2018-10-12T07:45:00.317Z,89.60
2018-10-12T07:47:29.528Z,89.40
2018-10-12T07:49:58.899Z,89.60
2018-10-12T07:52:27.911Z,89.50
2018-10-12T07:54:56.351Z,89.50
2018-10-12T07:57:31.435Z,88.90
2018-10-12T08:00:00.905Z,88.80
2018-10-12T08:02:29.399Z,88.80
2018-10-12T08:04:57.931Z,88.70
2018-10-12T08:07:26.286Z,88.60
2018-10-12T08:09:54.598Z,88.20
2018-10-12T08:12:22.925Z,88.20
2018-10-12T08:14:51.345Z,88.00
2018-10-12T08:17:19.724Z,87.90
2018-10-12T08:19:48.534Z,88.10
2018-10-12T08:22:16.944Z,87.60
2018-10-12T08:24:45.245Z,86.70
2018-10-12T08:27:14.562Z,86.30
2018-10-12T08:29:43.194Z,85.60
2018-10-12T08:32:13.560Z,85.80
2018-10-12T08:34:42.053Z,86.10
2018-10-12T08:37:10.935Z,85.50
2018-10-12T08:39:39.314Z,83.80
2018-10-12T08:42:09.984Z,83.80
2018-10-12T08:44:38.829Z,83.50
2018-10-12T08:47:07.315Z,83.20
2018-10-12T08:49:35.686Z,83.10
2018-10-12T08:52:04.153Z,82.00
2018-10-12T08:54:32.513Z,82.40
2018-10-12T08:57:00.823Z,82.50
2018-10-12T08:59:29.260Z,82.40
2018-10-12T09:01:57.734Z,82.60
2018-10-12T09:04:26.107Z,82.50
2018-10-12T09:06:54.506Z,82.70
2018-10-12T09:09:22.981Z,82.80
2018-10-12T09:11:51.552Z,81.90
2018-10-12T09:14:20.037Z,81.50
2018-10-12T09:16:48.451Z,80.90
2018-10-12T09:19:17.830Z,81.00
2018-10-12T09:21:46.195Z,81.10
2018-10-12T09:24:14.530Z,80.80
2018-10-12T09:26:42.970Z,80.70
2018-10-12T09:29:11.698Z,80.10
2018-10-12T09:31:41.395Z,80.30
2018-10-12T09:34:10.018Z,79.80
2018-10-12T09:36:39.627Z,80.40
2018-10-12T09:39:08.646Z,79.90
2018-10-12T09:41:39.190Z,80.60
2018-10-12T09:44:07.826Z,80.10
2018-10-12T09:46:36.326Z,79.50
2018-10-12T09:49:04.576Z,78.80
2018-10-12T09:51:33.624Z,78.80
2018-10-12T09:54:02.081Z,79.00
2018-10-12T09:56:30.368Z,78.70
2018-10-12T09:58:58.919Z,78.80
2018-10-12T10:01:33.372Z,78.70
2018-10-12T10:04:07.190Z,77.70
2018-10-12T10:06:35.611Z,77.70
2018-10-12T10:09:07.145Z,78.30
2018-10-12T10:11:35.794Z,78.20
2018-10-12T10:14:04.232Z,77.60
2018-10-12T10:16:32.617Z,77.60
2018-10-12T10:19:00.967Z,77.80
2018-10-12T10:21:29.386Z,78.50
2018-10-12T10:23:57.876Z,78.70
2018-10-12T10:26:27.127Z,78.80
2018-10-12T10:28:55.431Z,78.90
2018-10-12T10:31:27.933Z,78.50
2018-10-12T10:34:03.001Z,77.50
2018-10-12T10:36:31.622Z,78.10
2018-10-12T10:39:06.585Z,78.10
2018-10-12T10:41:35.629Z,77.60
2018-10-12T10:44:04.858Z,77.00
2018-10-12T10:46:33.244Z,76.00
2018-10-12T10:49:01.700Z,76.00
2018-10-12T10:51:30.097Z,75.10
2018-10-12T10:53:58.421Z,74.20
2018-10-12T10:56:27.054Z,73.90
2018-10-12T10:58:55.357Z,74.10
2018-10-12T11:01:23.950Z,73.60
2018-10-12T11:03:53.042Z,73.30
2018-10-12T11:06:21.586Z,72.20
2018-10-12T11:08:49.972Z,73.00
2018-10-12T11:11:18.279Z,73.70
2018-10-12T11:13:46.698Z,72.40
2018-10-12T11:16:15.318Z,72.20
2018-10-12T11:18:43.746Z,72.20
2018-10-12T11:21:12.112Z,71.30
2018-10-12T11:23:40.431Z,71.00
2018-10-12T11:26:08.856Z,71.10
2018-10-12T11:28:37.360Z,70.90
2018-10-12T11:31:05.862Z,70.80
2018-10-12T11:33:34.905Z,69.60
2018-10-12T11:36:03.403Z,69.80
2018-10-12T11:38:31.775Z,70.60
2018-10-12T11:41:00.147Z,70.00
2018-10-12T11:43:32.118Z,69.30
2018-10-12T11:46:00.990Z,69.50
2018-10-12T11:48:29.574Z,69.40
2018-10-12T11:50:58.471Z,68.90
2018-10-12T11:53:26.871Z,68.10
2018-10-12T11:55:55.317Z,67.90
2018-10-12T11:58:24.303Z,68.40
2018-10-12T12:00:57.111Z,69.00
2018-10-12T12:03:27.329Z,68.90
2018-10-12T12:05:55.609Z,69.00
2018-10-12T12:08:23.837Z,68.20
2018-10-12T12:10:52.984Z,67.90
2018-10-12T12:13:21.355Z,67.30
2018-10-12T12:15:50.000Z,67.40
2018-10-12T12:18:18.535Z,67.90
2018-10-12T12:20:47.043Z,66.40
2018-10-12T12:23:21.798Z,67.00
2018-10-12T12:25:50.128Z,66.40
2018-10-12T12:28:18.519Z,64.70
2018-10-12T12:30:46.971Z,64.30
2018-10-12T12:33:15.381Z,64.70
2018-10-12T12:35:44.143Z,63.80
2018-10-12T12:38:12.531Z,63.40
2018-10-12T12:40:40.918Z,63.50
2018-10-12T12:43:09.371Z,64.10
2018-10-12T12:45:38.721Z,63.80
2018-10-12T12:48:07.193Z,63.40
2018-10-12T12:50:35.552Z,63.50
2018-10-12T12:53:03.797Z,63.50
2018-10-12T12:55:32.398Z,63.20
2018-10-12T12:58:00.917Z,63.50
2018-10-12T13:00:29.475Z,63.20
2018-10-12T13:03:00.627Z,63.30
2018-10-12T13:05:30.127Z,63.50
2018-10-12T13:07:58.615Z,62.80
2018-10-12T13:10:27.084Z,63.40
2018-10-12T13:12:55.524Z,63.00
2018-10-12T13:15:24.091Z,63.20
2018-10-12T13:17:52.465Z,62.70
2018-10-12T13:20:20.820Z,62.40
2018-10-12T13:22:49.194Z,62.00
2018-10-12T13:25:17.586Z,62.10
2018-10-12T13:27:45.949Z,62.00
2018-10-12T13:30:14.241Z,62.30
2018-10-12T13:32:42.715Z,62.30
2018-10-12T13:35:11.096Z,61.90
2018-10-12T13:37:39.478Z,62.40
2018-10-12T13:40:07.946Z,61.90
2018-10-12T13:42:36.426Z,61.80
2018-10-12T13:45:04.864Z,61.40
2018-10-12T13:47:33.530Z,61.10
2018-10-12T13:50:02.196Z,61.70
2018-10-12T13:52:31.690Z,61.70
2018-10-12T13:55:00.158Z,61.10
2018-10-12T13:57:28.700Z,60.90
2018-10-12T13:59:57.108Z,61.30
2018-10-12T14:02:25.416Z,60.90
2018-10-12T14:04:53.900Z,60.90
2018-10-12T14:07:22.921Z,60.70
2018-10-12T14:09:51.376Z,60.60
2018-10-12T14:12:19.771Z,60.30
2018-10-12T14:14:48.313Z,60.10
2018-10-12T14:17:17.388Z,59.80
2018-10-12T14:19:45.920Z,60.50
2018-10-12T14:22:14.576Z,60.80
2018-10-12T14:24:43.112Z,60.10
2018-10-12T14:27:15.369Z,60.00
2018-10-12T14:29:43.745Z,59.50
2018-10-12T14:32:12.125Z,59.20
2018-10-12T14:34:40.476Z,59.60
2018-10-12T14:37:08.970Z,59.70
2018-10-12T14:39:37.311Z,60.10
2018-10-12T14:42:06.297Z,59.70
2018-10-12T14:44:34.677Z,59.50
2018-10-12T14:47:04.487Z,59.20
2018-10-12T14:49:32.905Z,59.10
2018-10-12T14:52:01.607Z,59.10
2018-10-12T14:54:30.096Z,59.40
2018-10-12T14:56:58.505Z,59.40
2018-10-12T14:59:26.883Z,59.40
2018-10-12T15:01:55.414Z,59.70
2018-10-12T15:04:23.984Z,59.40
2018-10-12T15:06:52.366Z,59.50
2018-10-12T15:09:20.783Z,59.40
2018-10-12T15:11:50.267Z,59.40
2018-10-12T15:14:23.523Z,59.40
2018-10-12T15:16:51.903Z,59.40
2018-10-12T15:19:20.222Z,59.40
2018-10-12T15:21:48.608Z,59.60
2018-10-12T15:24:17.090Z,59.80
2018-10-12T15:26:45.533Z,59.70
2018-10-12T15:29:15.621Z,59.80
2018-10-12T15:31:44.058Z,59.80
2018-10-12T15:34:12.708Z,59.90
2018-10-12T15:36:41.342Z,60.10
2018-10-12T15:39:09.803Z,60.20
2018-10-12T15:41:38.508Z,60.30
2018-10-12T15:44:06.885Z,60.00
2018-10-12T15:46:35.163Z,60.10
2018-10-12T15:49:03.781Z,60.30
2018-10-12T15:51:32.421Z,60.30
2018-10-12T15:54:01.466Z,60.60
2018-10-12T15:56:29.890Z,60.70
2018-10-12T15:58:58.372Z,60.90
2018-10-12T16:01:27.231Z,61.00
2018-10-12T16:03:55.688Z,61.10
2018-10-12T16:06:24.562Z,61.30
2018-10-12T16:08:53.804Z,62.40
2018-10-12T16:11:22.617Z,61.50
2018-10-12T16:13:50.979Z,61.70
2018-10-12T16:16:20.469Z,61.90
2018-10-12T16:18:48.845Z,62.10
2018-10-12T16:21:17.478Z,62.30
2018-10-12T16:23:49.822Z,62.50
2018-10-12T16:26:19.636Z,62.70
2018-10-12T16:28:49.040Z,62.90
2018-10-12T16:31:17.513Z,63.10
2018-10-12T16:33:48.731Z,63.20
2018-10-12T16:36:17.557Z,63.40
2018-10-12T16:38:46.361Z,63.60
2018-10-12T16:41:14.740Z,63.80
2018-10-12T16:43:43.458Z,63.90
2018-10-12T16:46:28.227Z,64.10
2018-10-12T16:48:56.513Z,64.40
2018-10-12T16:51:24.948Z,64.60
2018-10-12T16:53:53.337Z,64.90
2018-10-12T16:56:21.799Z,65.10
2018-10-12T16:58:50.364Z,65.20
2018-10-12T17:01:19.242Z,65.50
2018-10-12T17:03:47.531Z,65.80
2018-10-12T17:06:16.001Z,66.00
2018-10-12T17:08:44.722Z,66.30
2018-10-12T17:11:13.230Z,66.40
2018-10-12T17:13:42.183Z,66.40
2018-10-12T17:16:10.619Z,66.70
2018-10-12T17:18:39.087Z,67.10
2018-10-12T17:21:07.657Z,67.30
2018-10-12T17:23:36.012Z,67.80
2018-10-12T17:26:04.517Z,68.00
2018-10-12T17:28:32.941Z,68.20
2018-10-12T17:31:01.237Z,68.00
2018-10-12T17:33:29.544Z,68.30
2018-10-12T17:35:57.940Z,68.30
2018-10-12T17:38:26.384Z,69.20
2018-10-12T17:40:54.842Z,68.60
2018-10-12T17:43:23.191Z,68.80
2018-10-12T17:45:52.248Z,69.00
2018-10-12T17:48:25.689Z,69.20
2018-10-12T17:50:54.607Z,69.30
2018-10-12T17:53:23.701Z,69.60
2018-10-12T17:55:52.341Z,69.70
2018-10-12T17:58:20.719Z,69.90
2018-10-12T18:00:49.101Z,70.00
2018-10-12T18:03:17.422Z,70.20
2018-10-12T18:05:49.994Z,70.30
2018-10-12T18:08:18.673Z,70.60
2018-10-12T18:10:47.010Z,70.80
2018-10-12T18:13:15.417Z,70.80
2018-10-12T18:15:44.685Z,70.90
2018-10-12T18:18:13.045Z,71.00
2018-10-12T18:20:41.868Z,71.10
2018-10-12T18:23:10.169Z,71.10
2018-10-12T18:25:38.741Z,71.10
2018-10-12T18:28:07.131Z,71.30
2018-10-12T18:30:36.548Z,71.60
2018-10-12T18:33:05.057Z,72.00
2018-10-12T18:35:33.515Z,72.10
2018-10-12T18:38:01.950Z,72.10
2018-10-12T18:40:30.832Z,72.20
2018-10-12T18:42:59.255Z,72.20
2018-10-12T18:45:27.639Z,72.80
2018-10-12T18:47:56.903Z,73.00
2018-10-12T18:50:25.384Z,73.20
2018-10-12T18:52:54.442Z,73.60
2018-10-12T18:55:23.064Z,73.50
2018-10-12T18:57:51.639Z,73.70
2018-10-12T19:00:20.013Z,73.80
2018-10-12T19:02:48.393Z,73.90
2018-10-12T19:05:16.759Z,74.00
2018-10-12T19:07:45.123Z,74.70
2018-10-12T19:10:13.520Z,75.00
2018-10-12T19:12:42.159Z,75.50
2018-10-12T19:15:10.453Z,76.00
2018-10-12T19:17:38.872Z,76.20
2018-10-12T19:20:07.488Z,76.10
2018-10-12T19:22:36.049Z,75.90
2018-10-12T19:25:04.575Z,76.40
2018-10-12T19:27:32.984Z,76.70
2018-10-12T19:30:01.305Z,77.20
2018-10-12T19:32:29.895Z,77.30
2018-10-12T19:35:00.130Z,77.80
2018-10-12T19:37:28.963Z,77.60
2018-10-12T19:39:57.442Z,77.70
2018-10-12T19:42:25.844Z,77.70
2018-10-12T19:44:55.105Z,77.50
2018-10-12T19:47:23.779Z,77.70
2018-10-12T19:49:52.268Z,78.10
2018-10-12T19:52:20.727Z,78.00
2018-10-12T19:54:49.333Z,78.10
2018-10-12T19:57:17.768Z,78.20
2018-10-12T19:59:46.174Z,78.20
2018-10-12T20:02:14.602Z,78.20
2018-10-12T20:04:43.997Z,78.30
2018-10-12T20:07:12.831Z,78.50
2018-10-12T20:09:42.426Z,78.50
2018-10-12T20:12:10.845Z,78.50
2018-10-12T20:14:39.290Z,78.60
2018-10-12T20:17:08.492Z,78.50
2018-10-12T20:19:40.207Z,78.60
2018-10-12T20:22:09.916Z,78.70
2018-10-12T20:24:38.908Z,78.70
2018-10-12T20:27:07.344Z,78.60
2018-10-12T20:29:35.779Z,78.60
2018-10-12T20:32:15.182Z,78.90
2018-10-12T20:34:44.191Z,79.00
2018-10-12T20:37:12.701Z,79.40
2018-10-12T20:39:41.712Z,79.20
2018-10-12T20:42:10.778Z,79.10
2018-10-12T20:44:39.181Z,79.50
2018-10-12T20:47:08.306Z,79.60
2018-10-12T20:49:37.830Z,79.40
2018-10-12T20:52:06.609Z,79.60
2018-10-12T20:54:36.219Z,79.70
2018-10-12T20:57:04.720Z,80.10
2018-10-12T20:59:33.174Z,80.20
2018-10-12T21:02:01.546Z,80.30
2018-10-12T21:04:30.012Z,80.40
2018-10-12T21:06:58.367Z,80.40
2018-10-12T21:09:26.727Z,80.30
2018-10-12T21:11:55.093Z,80.40
2018-10-12T21:14:23.518Z,80.60
2018-10-12T21:16:52.022Z,80.70
2018-10-12T21:19:20.378Z,80.60
2018-10-12T21:21:48.874Z,80.60
2018-10-12T21:24:17.372Z,80.70
2018-10-12T21:26:45.758Z,80.70
2018-10-12T21:29:14.205Z,80.90
2018-10-12T21:31:42.656Z,81.80
2018-10-12T21:34:11.074Z,81.30
2018-10-12T21:36:39.454Z,81.30
2018-10-12T21:39:07.933Z,81.30
2018-10-12T21:41:36.679Z,81.60
2018-10-12T21:44:04.958Z,81.60
2018-10-12T21:46:33.371Z,81.90
2018-10-12T21:49:01.765Z,82.00
2018-10-12T21:51:30.134Z,81.90
2018-10-12T21:53:58.512Z,82.00
2018-10-12T21:56:26.893Z,82.00
2018-10-12T21:58:55.307Z,81.90
2018-10-12T22:01:23.799Z,81.90
2018-10-12T22:03:52.229Z,81.80
2018-10-12T22:06:20.588Z,81.90
2018-10-12T22:08:51.347Z,81.90
2018-10-12T22:11:19.673Z,81.90
2018-10-12T22:13:48.069Z,82.20
2018-10-12T22:16:16.345Z,82.30
2018-10-12T22:18:44.761Z,82.50
2018-10-12T22:21:12.995Z,83.60
2018-10-12T22:23:41.942Z,83.40
2018-10-12T22:26:10.235Z,84.20
2018-10-12T22:28:38.707Z,84.30
2018-10-12T22:31:07.645Z,84.10
2018-10-12T22:33:36.056Z,83.90
2018-10-12T22:36:04.487Z,83.90
2018-10-12T22:38:32.842Z,83.90
2018-10-12T22:41:01.489Z,83.70
2018-10-12T22:43:30.277Z,83.60
2018-10-12T22:45:58.714Z,83.50
2018-10-12T22:48:27.009Z,83.60
2018-10-12T22:50:55.657Z,83.50
2018-10-12T22:53:26.052Z,83.70
2018-10-12T22:55:54.679Z,83.90
2018-10-12T22:58:22.971Z,83.80
2018-10-12T23:00:51.467Z,83.70
2018-10-12T23:03:19.795Z,83.90
2018-10-12T23:05:48.061Z,84.00
2018-10-12T23:08:16.437Z,83.80
2018-10-12T23:10:44.772Z,84.00
2018-10-12T23:13:13.284Z,84.00
2018-10-12T23:15:41.613Z,84.30
2018-10-12T23:18:09.977Z,84.30
2018-10-12T23:20:38.202Z,84.40
2018-10-12T23:23:06.611Z,84.60
2018-10-12T23:25:34.936Z,84.80
2018-10-12T23:28:03.245Z,84.20
2018-10-12T23:30:34.544Z,84.90
2018-10-12T23:33:16.427Z,84.90
2018-10-12T23:35:46.373Z,84.90
2018-10-12T23:38:15.785Z,85.00
2018-10-12T23:40:45.976Z,84.80
2018-10-12T23:43:14.445Z,84.70
2018-10-12T23:45:44.928Z,84.80
2018-10-12T23:48:13.260Z,85.00
2018-10-12T23:50:42.879Z,85.10
2018-10-12T23:53:12.291Z,85.50
2018-10-12T23:55:40.593Z,85.60
2018-10-12T23:58:08.920Z,85.60
